BAW482P EGLL-LEBL
Flight info
| Callsign | BAW482P |
|---|---|
| Flight time | N/A |
| Altitude | 37000 |
| Route | DCT MODMI M185 MID L151 SITET UN859 SOPIL DCT BALAN DCT EVPOK DCT NARAK DCT GAI DCT LOMRA DCT ROCAN DCT PUMAL DCT |
| Aircraft | A320/M-SDE3FGHIJ1RWXY/S |
Departure
| Time | 2026-05-01 14:49 |
|---|---|
| Airport | London Heathrow Airport (EGLL) |
Arrival
| Time | N/A |
|---|---|
| Airport | Josep Tarradellas Barcelona-El Prat Airport (LEBL) |
| Time | Latitude | Longitude | Altitude | Speed | Heading |
|---|---|---|---|---|---|
| 2026-05-01 13:58 | 51.46931 | -0.48715 | 86 ft | 0 kts | 359° |
| 2026-05-01 14:34 | 51.46924 | -0.48715 | 86 ft | 4 kts | 359° |
| 2026-05-01 14:35 | 51.46898 | -0.48715 | 88 ft | 4 kts | 359° |
| 2026-05-01 14:35 | 51.46879 | -0.48722 | 87 ft | 4 kts | 72° |
| 2026-05-01 14:35 | 51.46876 | -0.48754 | 87 ft | 4 kts | 89° |
| 2026-05-01 14:35 | 51.46876 | -0.48794 | 86 ft | 1 kts | 89° |
| 2026-05-01 14:36 | 51.46876 | -0.48795 | 86 ft | 0 kts | 89° |
| 2026-05-01 14:39 | 51.46876 | -0.48793 | 86 ft | 1 kts | 89° |
| 2026-05-01 14:39 | 51.46876 | -0.48741 | 86 ft | 8 kts | 89° |
| 2026-05-01 14:39 | 51.46877 | -0.48632 | 86 ft | 12 kts | 89° |
| 2026-05-01 14:40 | 51.46868 | -0.48487 | 88 ft | 14 kts | 125° |
| 2026-05-01 14:40 | 51.46782 | -0.48468 | 86 ft | 12 kts | 179° |
| 2026-05-01 14:40 | 51.46707 | -0.48467 | 86 ft | 11 kts | 179° |
| 2026-05-01 14:40 | 51.46652 | -0.48426 | 89 ft | 9 kts | 104° |
| 2026-05-01 14:41 | 51.46653 | -0.48315 | 86 ft | 11 kts | 90° |
| 2026-05-01 14:41 | 51.46653 | -0.48171 | 86 ft | 14 kts | 90° |
| 2026-05-01 14:41 | 51.46654 | -0.48004 | 86 ft | 16 kts | 89° |
| 2026-05-01 14:41 | 51.46654 | -0.47818 | 86 ft | 18 kts | 89° |
| 2026-05-01 14:42 | 51.46655 | -0.47589 | 86 ft | 23 kts | 90° |
| 2026-05-01 14:42 | 51.46656 | -0.47323 | 86 ft | 25 kts | 89° |
| 2026-05-01 14:42 | 51.46657 | -0.47036 | 90 ft | 26 kts | 90° |
| 2026-05-01 14:42 | 51.46658 | -0.46765 | 90 ft | 24 kts | 91° |
| 2026-05-01 14:43 | 51.46659 | -0.46486 | 88 ft | 26 kts | 89° |
| 2026-05-01 14:43 | 51.46661 | -0.46216 | 88 ft | 21 kts | 88° |
| 2026-05-01 14:43 | 51.46660 | -0.46011 | 88 ft | 19 kts | 89° |
| 2026-05-01 14:43 | 51.46662 | -0.45743 | 86 ft | 27 kts | 90° |
| 2026-05-01 14:44 | 51.46662 | -0.45436 | 86 ft | 26 kts | 89° |
| 2026-05-01 14:44 | 51.46664 | -0.44861 | 86 ft | 24 kts | 89° |
| 2026-05-01 14:44 | 51.46665 | -0.44578 | 86 ft | 26 kts | 90° |
| 2026-05-01 14:45 | 51.46666 | -0.44317 | 86 ft | 17 kts | 90° |
| 2026-05-01 14:45 | 51.46667 | -0.44177 | 86 ft | 0 kts | 89° |
| 2026-05-01 14:45 | 51.46667 | -0.44167 | 86 ft | 4 kts | 89° |
| 2026-05-01 14:46 | 51.46667 | -0.44096 | 86 ft | 8 kts | 93° |
| 2026-05-01 14:46 | 51.46573 | -0.44052 | 86 ft | 9 kts | 180° |
| 2026-05-01 14:46 | 51.46502 | -0.44066 | 86 ft | 11 kts | 212° |
| 2026-05-01 14:47 | 51.46492 | -0.44140 | 86 ft | 0 kts | 269° |
| 2026-05-01 14:48 | 51.46491 | -0.44142 | 86 ft | 1 kts | 269° |
| 2026-05-01 14:48 | 51.46489 | -0.45232 | 88 ft | 107 kts | 269° |
| 2026-05-01 14:49 | 51.46468 | -0.48427 | 525 ft | 158 kts | 265° |
| 2026-05-01 14:49 | 51.46402 | -0.52077 | 1464 ft | 181 kts | 262° |
| 2026-05-01 14:50 | 51.45785 | -0.54743 | 1811 ft | 207 kts | 239° |
| 2026-05-01 14:50 | 51.43477 | -0.60590 | 3381 ft | 248 kts | 219° |
| 2026-05-01 14:51 | 51.41924 | -0.61726 | 4245 ft | 250 kts | 187° |
| 2026-05-01 14:51 | 51.38499 | -0.60450 | 6021 ft | 258 kts | 163° |
| 2026-05-01 14:52 | 51.35069 | -0.58527 | 7708 ft | 264 kts | 162° |
| 2026-05-01 14:52 | 51.33352 | -0.57563 | 8513 ft | 266 kts | 162° |
| 2026-05-01 14:52 | 51.29813 | -0.55740 | 10174 ft | 268 kts | 172° |
| 2026-05-01 14:53 | 51.27943 | -0.55662 | 10851 ft | 273 kts | 185° |
| 2026-05-01 14:53 | 51.25976 | -0.55975 | 11043 ft | 296 kts | 186° |
| 2026-05-01 14:53 | 51.23868 | -0.56505 | 11219 ft | 317 kts | 191° |
| 2026-05-01 14:53 | 51.21681 | -0.57241 | 11744 ft | 324 kts | 191° |
| 2026-05-01 14:54 | 51.19461 | -0.57979 | 12370 ft | 328 kts | 191° |
| 2026-05-01 14:54 | 51.17209 | -0.58715 | 13001 ft | 332 kts | 191° |
| 2026-05-01 14:54 | 51.14930 | -0.59451 | 13664 ft | 335 kts | 190° |
| 2026-05-01 14:54 | 51.12624 | -0.60190 | 14260 ft | 339 kts | 190° |
| 2026-05-01 14:55 | 51.10303 | -0.60932 | 14836 ft | 342 kts | 190° |
| 2026-05-01 14:55 | 51.07950 | -0.61636 | 15401 ft | 344 kts | 186° |
| 2026-05-01 14:55 | 51.05554 | -0.61711 | 15961 ft | 346 kts | 174° |
| 2026-05-01 14:55 | 51.03175 | -0.60966 | 16507 ft | 350 kts | 163° |
| 2026-05-01 14:56 | 51.00929 | -0.59554 | 17075 ft | 353 kts | 158° |
| 2026-05-01 14:56 | 50.98654 | -0.58040 | 17643 ft | 356 kts | 158° |
| 2026-05-01 14:56 | 50.96353 | -0.56518 | 18228 ft | 358 kts | 159° |
| 2026-05-01 14:56 | 50.94041 | -0.54994 | 18758 ft | 361 kts | 159° |
| 2026-05-01 14:57 | 50.91711 | -0.53461 | 19246 ft | 364 kts | 159° |
| 2026-05-01 14:57 | 50.87001 | -0.50367 | 20274 ft | 368 kts | 158° |
| 2026-05-01 14:57 | 50.84625 | -0.48804 | 20765 ft | 371 kts | 158° |
| 2026-05-01 14:58 | 50.82233 | -0.47231 | 21254 ft | 373 kts | 158° |
| 2026-05-01 14:58 | 50.79826 | -0.45652 | 21726 ft | 376 kts | 158° |
| 2026-05-01 14:58 | 50.77430 | -0.44086 | 22179 ft | 378 kts | 158° |
| 2026-05-01 14:58 | 50.74993 | -0.42496 | 22630 ft | 380 kts | 158° |
| 2026-05-01 14:59 | 50.72536 | -0.40896 | 23085 ft | 382 kts | 159° |
| 2026-05-01 14:59 | 50.70072 | -0.39293 | 23534 ft | 385 kts | 158° |
| 2026-05-01 14:59 | 50.67592 | -0.37676 | 23948 ft | 387 kts | 158° |
| 2026-05-01 14:59 | 50.65095 | -0.36050 | 24314 ft | 389 kts | 158° |
| 2026-05-01 15:00 | 50.60054 | -0.32771 | 25042 ft | 394 kts | 158° |
| 2026-05-01 15:00 | 50.57507 | -0.31115 | 25403 ft | 396 kts | 158° |
| 2026-05-01 15:00 | 50.54953 | -0.29458 | 25760 ft | 398 kts | 158° |
| 2026-05-01 15:01 | 50.52385 | -0.27797 | 26108 ft | 400 kts | 158° |
| 2026-05-01 15:01 | 50.49804 | -0.26131 | 26443 ft | 402 kts | 158° |
| 2026-05-01 15:01 | 50.47210 | -0.24456 | 26803 ft | 404 kts | 158° |
| 2026-05-01 15:01 | 50.44633 | -0.22791 | 27145 ft | 406 kts | 158° |
| 2026-05-01 15:02 | 50.42013 | -0.21101 | 27506 ft | 408 kts | 158° |
| 2026-05-01 15:02 | 50.41127 | -0.20531 | 27623 ft | 409 kts | 158° |
| 2026-05-01 15:02 | 50.36723 | -0.17705 | 28175 ft | 413 kts | 158° |
| 2026-05-01 15:02 | 50.34054 | -0.15996 | 28524 ft | 415 kts | 158° |
| 2026-05-01 15:03 | 50.31373 | -0.14281 | 28871 ft | 417 kts | 158° |
| 2026-05-01 15:03 | 50.28681 | -0.12556 | 29199 ft | 419 kts | 158° |
| 2026-05-01 15:03 | 50.25988 | -0.10831 | 29663 ft | 418 kts | 158° |
| 2026-05-01 15:03 | 50.23303 | -0.09116 | 30156 ft | 416 kts | 157° |
| 2026-05-01 15:04 | 50.20626 | -0.07407 | 30577 ft | 415 kts | 157° |
| 2026-05-01 15:04 | 50.17960 | -0.05640 | 30912 ft | 416 kts | 156° |
| 2026-05-01 15:04 | 50.15306 | -0.03804 | 31217 ft | 418 kts | 155° |
| 2026-05-01 15:04 | 50.12647 | -0.01927 | 31555 ft | 419 kts | 155° |
| 2026-05-01 15:05 | 50.10004 | -0.00156 | 31915 ft | 419 kts | 160° |
| 2026-05-01 15:05 | 50.07209 | 0.01100 | 32387 ft | 416 kts | 165° |
| 2026-05-01 15:05 | 50.04404 | 0.02223 | 32822 ft | 415 kts | 165° |
| 2026-05-01 15:05 | 50.01608 | 0.03328 | 33224 ft | 414 kts | 165° |
| 2026-05-01 15:06 | 49.98815 | 0.04424 | 33616 ft | 414 kts | 165° |
| 2026-05-01 15:06 | 49.96022 | 0.05518 | 33992 ft | 414 kts | 166° |
| 2026-05-01 15:06 | 49.94163 | 0.06246 | 34158 ft | 416 kts | 166° |
| 2026-05-01 15:06 | 49.91348 | 0.07347 | 34411 ft | 418 kts | 166° |
| 2026-05-01 15:07 | 49.88526 | 0.08455 | 34689 ft | 418 kts | 166° |
| 2026-05-01 15:07 | 49.85695 | 0.09570 | 34967 ft | 419 kts | 166° |
| 2026-05-01 15:07 | 49.82866 | 0.10678 | 35168 ft | 420 kts | 166° |
| 2026-05-01 15:08 | 49.77130 | 0.12906 | 35220 ft | 430 kts | 166° |
| 2026-05-01 15:08 | 49.71295 | 0.15179 | 35218 ft | 434 kts | 166° |
| 2026-05-01 15:09 | 49.65465 | 0.17458 | 35227 ft | 435 kts | 166° |
| 2026-05-01 15:09 | 49.59603 | 0.19825 | 35223 ft | 435 kts | 165° |
| 2026-05-01 15:10 | 49.53735 | 0.22211 | 35219 ft | 436 kts | 166° |
| 2026-05-01 15:10 | 49.44915 | 0.25751 | 35171 ft | 438 kts | 166° |
| 2026-05-01 15:11 | 49.36044 | 0.29295 | 35186 ft | 440 kts | 166° |
| 2026-05-01 15:12 | 49.30116 | 0.31654 | 35187 ft | 441 kts | 166° |
| 2026-05-01 15:12 | 49.21242 | 0.35377 | 35184 ft | 443 kts | 166° |
| 2026-05-01 15:14 | 49.06327 | 0.41686 | 35187 ft | 446 kts | 166° |
| 2026-05-01 15:14 | 48.97322 | 0.45445 | 35202 ft | 447 kts | 166° |
| 2026-05-01 15:15 | 48.85337 | 0.50423 | 35220 ft | 445 kts | 166° |
| 2026-05-01 15:16 | 48.73371 | 0.55311 | 35218 ft | 444 kts | 167° |
| 2026-05-01 15:18 | 48.58373 | 0.61123 | 35184 ft | 447 kts | 167° |
| 2026-05-01 15:19 | 48.46297 | 0.65891 | 35175 ft | 450 kts | 167° |
| 2026-05-01 15:19 | 48.37242 | 0.69604 | 35168 ft | 452 kts | 167° |
| 2026-05-01 15:20 | 48.28094 | 0.73325 | 35173 ft | 454 kts | 167° |
| 2026-05-01 15:21 | 48.22011 | 0.75768 | 35172 ft | 455 kts | 168° |
| 2026-05-01 15:21 | 48.15987 | 0.78144 | 35168 ft | 456 kts | 168° |
| 2026-05-01 15:22 | 48.06812 | 0.81717 | 35168 ft | 457 kts | 168° |
| 2026-05-01 15:22 | 48.00625 | 0.84129 | 35182 ft | 457 kts | 168° |
| 2026-05-01 15:23 | 47.94469 | 0.86535 | 35196 ft | 457 kts | 168° |
| 2026-05-01 15:23 | 47.88318 | 0.88942 | 35197 ft | 457 kts | 168° |
| 2026-05-01 15:24 | 47.82205 | 0.91317 | 35199 ft | 457 kts | 168° |
| 2026-05-01 15:24 | 47.76037 | 0.93696 | 35194 ft | 457 kts | 168° |
| 2026-05-01 15:25 | 47.69896 | 0.96068 | 35205 ft | 456 kts | 168° |
| 2026-05-01 15:25 | 47.64000 | 0.98346 | 35208 ft | 456 kts | 168° |
| 2026-05-01 15:26 | 47.57856 | 1.00710 | 35200 ft | 455 kts | 168° |
| 2026-05-01 15:26 | 47.51732 | 1.03060 | 35216 ft | 454 kts | 169° |
| 2026-05-01 15:27 | 47.45656 | 1.05379 | 35219 ft | 453 kts | 169° |
| 2026-05-01 15:28 | 47.36364 | 1.06282 | 35210 ft | 445 kts | 184° |
| 2026-05-01 15:28 | 47.30182 | 1.06140 | 35220 ft | 444 kts | 184° |
| 2026-05-01 15:29 | 47.20931 | 1.05923 | 35224 ft | 443 kts | 184° |
| 2026-05-01 15:30 | 47.08747 | 1.05639 | 35221 ft | 441 kts | 184° |
| 2026-05-01 15:31 | 46.90386 | 1.05008 | 35219 ft | 439 kts | 184° |
| 2026-05-01 15:32 | 46.78180 | 1.04443 | 35220 ft | 439 kts | 184° |
| 2026-05-01 15:34 | 46.59948 | 1.03679 | 35220 ft | 438 kts | 184° |